Time;durP1;ratioP1;P1;durP2;ratioP2;P2;SDS_P1;SDS_P2;PMS_P1;PMS_P2;Temp;Humidity;BMP_temperature;BMP_pressure;BME280_temperature;BME280_humidity;BME280_pressure;Samples;Min_cycle;Max_cycle;Signal;HPM_P1;HPM_P2
2023/04/22 00:02:15;;;;;;;10.52;8.75;;;;;;;11.81;53.13;94596.75;5014537;28;20242;-68
2023/04/22 00:04:42;;;;;;;10.38;8.98;;;;;;;11.84;53.18;94593.75;5013772;28;20660;-69
2023/04/22 00:07:08;;;;;;;15.60;9.17;;;;;;;11.83;53.19;94592.94;5028397;28;20326;-69
2023/04/22 00:09:33;;;;;;;16.40;9.15;;;;;;;11.78;53.58;94590.00;5003079;28;20260;-68
2023/04/22 00:12:00;;;;;;;12.95;8.80;;;;;;;11.75;53.61;94586.91;5005206;28;20272;-69
2023/04/22 00:14:26;;;;;;;12.40;8.73;;;;;;;11.70;53.73;94590.84;5009545;28;20218;-70
2023/04/22 00:16:51;;;;;;;11.38;9.45;;;;;;;11.56;53.85;94577.56;5007567;28;20193;-69
2023/04/22 00:19:16;;;;;;;11.00;9.52;;;;;;;11.52;53.81;94584.13;5010512;28;20714;-69
2023/04/22 00:21:42;;;;;;;11.60;8.83;;;;;;;11.53;53.65;94585.81;5013024;28;20797;-69
2023/04/22 00:24:07;;;;;;;11.23;9.18;;;;;;;11.52;53.45;94585.00;5004845;28;20227;-70
2023/04/22 00:26:33;;;;;;;9.30;8.40;;;;;;;11.55;52.95;94587.28;5013248;28;20245;-69
2023/04/22 00:28:58;;;;;;;9.27;8.13;;;;;;;11.42;53.49;94584.34;5009728;28;20281;-69
2023/04/22 00:31:24;;;;;;;10.13;8.10;;;;;;;11.36;53.43;94580.56;5007535;28;20191;-67
2023/04/22 00:33:49;;;;;;;8.67;7.80;;;;;;;11.38;52.85;94585.66;5009217;28;20218;-67
2023/04/22 00:36:15;;;;;;;11.23;7.15;;;;;;;11.43;52.68;94586.78;5026030;28;20225;-67
2023/04/22 00:38:47;;;;;;;12.70;7.82;;;;;;;11.27;52.64;94587.63;5011436;28;20711;-67
2023/04/22 00:41:13;;;;;;;9.37;7.97;;;;;;;11.32;53.15;94591.59;5008472;28;20214;-67
2023/04/22 00:43:39;;;;;;;8.93;8.03;;;;;;;11.26;53.86;94587.81;5006358;28;20282;-68
2023/04/22 00:46:05;;;;;;;9.35;8.45;;;;;;;11.33;54.16;94596.69;5013776;28;20243;-68
2023/04/22 00:48:30;;;;;;;11.00;8.57;;;;;;;11.32;53.99;94592.41;4999122;28;20218;-67
2023/04/22 00:50:56;;;;;;;12.63;8.87;;;;;;;11.36;54.16;94603.41;5008037;28;20295;-68
2023/04/22 00:53:21;;;;;;;10.63;8.60;;;;;;;11.32;54.43;94594.22;5026505;28;20327;-67
2023/04/22 00:55:47;;;;;;;11.70;9.45;;;;;;;11.31;54.97;94606.56;5013242;28;20187;-68
2023/04/22 00:58:13;;;;;;;14.23;9.77;;;;;;;11.27;55.31;94602.63;5007482;28;20215;-67
2023/04/22 01:00:39;;;;;;;11.73;9.33;;;;;;;11.24;55.71;94610.84;5008113;28;20226;-68
2023/04/22 01:03:06;;;;;;;11.47;9.67;;;;;;;11.45;55.43;94611.16;5004750;28;20230;-68
2023/04/22 01:05:32;;;;;;;12.47;10.90;;;;;;;10.80;57.47;94612.00;5010967;28;20227;-68
2023/04/22 01:07:58;;;;;;;12.03;10.87;;;;;;;10.50;58.78;94605.53;5023534;28;20643;-67
2023/04/22 01:10:23;;;;;;;12.43;10.80;;;;;;;10.28;59.51;94612.22;5008427;28;20875;-68
2023/04/22 01:12:49;;;;;;;12.47;11.03;;;;;;;10.20;60.04;94614.78;5011043;28;20223;-67
2023/04/22 01:15:15;;;;;;;12.13;10.87;;;;;;;10.20;60.44;94606.09;5010666;28;20218;-68
2023/04/22 01:17:40;;;;;;;15.83;13.17;;;;;;;9.85;61.41;94606.09;5014352;28;20225;-68
2023/04/22 01:20:09;;;;;;;12.63;10.93;;;;;;;9.89;61.70;94611.84;5008334;28;20211;-68
2023/04/22 01:22:39;;;;;;;12.73;11.17;;;;;;;10.07;61.08;94614.41;5009557;28;20210;-69
2023/04/22 01:25:04;;;;;;;12.82;11.43;;;;;;;10.00;61.29;94613.41;5017864;28;20223;-69
2023/04/22 01:27:30;;;;;;;16.33;11.50;;;;;;;10.17;60.66;94609.84;5004601;28;20227;-68
2023/04/22 01:29:56;;;;;;;14.20;12.70;;;;;;;9.97;61.63;94614.53;5010265;28;20706;-68
2023/04/22 01:32:21;;;;;;;13.13;11.73;;;;;;;10.27;60.25;94609.72;5007725;28;20234;-68
2023/04/22 01:34:46;;;;;;;13.90;12.03;;;;;;;10.35;59.99;94610.59;5017202;28;20222;-69
2023/04/22 01:37:12;;;;;;;14.93;11.50;;;;;;;10.24;60.35;94610.88;5013596;28;20973;-69
2023/04/22 01:39:38;;;;;;;14.03;12.63;;;;;;;10.49;59.58;94610.97;5008842;28;20218;-69
2023/04/22 01:42:03;;;;;;;14.33;11.77;;;;;;;10.43;59.78;94609.78;5006510;28;20784;-68
2023/04/22 01:44:29;;;;;;;13.53;12.13;;;;;;;10.51;59.20;94599.31;5016375;28;20238;-69
2023/04/22 01:46:54;;;;;;;13.87;11.97;;;;;;;10.52;59.30;94603.56;5011429;28;20206;-69
2023/04/22 01:49:20;;;;;;;14.50;12.30;;;;;;;10.66;58.97;94603.91;5012262;28;20196;-69
2023/04/22 01:51:45;;;;;;;13.65;12.25;;;;;;;10.29;60.04;94602.50;5005220;28;20710;-69
2023/04/22 01:54:11;;;;;;;16.40;14.90;;;;;;;10.14;61.06;94608.34;5008775;28;20310;-68
2023/04/22 01:56:42;;;;;;;17.27;14.37;;;;;;;10.28;60.37;94600.88;5017514;28;20733;-69
2023/04/22 01:59:08;;;;;;;14.90;13.40;;;;;;;10.37;60.20;94606.00;5024257;28;20222;-68
2023/04/22 02:01:33;;;;;;;15.27;13.67;;;;;;;10.47;59.65;94600.59;5007442;28;20296;-68
2023/04/22 02:03:58;;;;;;;15.43;13.37;;;;;;;10.63;59.59;94607.69;5006337;28;20223;-68
2023/04/22 02:06:24;;;;;;;14.83;12.33;;;;;;;10.70;58.94;94606.06;5009921;28;20273;-68
2023/04/22 02:08:50;;;;;;;14.53;12.60;;;;;;;10.73;58.98;94604.91;5007098;28;20717;-67
2023/04/22 02:11:15;;;;;;;15.10;13.53;;;;;;;10.76;59.09;94605.41;5000822;28;20313;-68
2023/04/22 02:13:41;;;;;;;13.43;12.03;;;;;;;10.70;58.84;94613.13;5013096;28;20459;-69
2023/04/22 02:16:07;;;;;;;13.80;11.70;;;;;;;10.75;58.73;94605.59;5012084;28;20234;-69
2023/04/22 02:18:33;;;;;;;15.93;12.07;;;;;;;10.83;58.21;94600.34;5006015;28;20323;-68
2023/04/22 02:20:58;;;;;;;13.07;11.70;;;;;;;10.90;58.32;94603.13;5012290;28;20218;-69
2023/04/22 02:23:24;;;;;;;13.07;11.73;;;;;;;10.95;57.90;94604.25;5003299;28;20223;-68
2023/04/22 02:25:50;;;;;;;12.30;11.10;;;;;;;10.95;57.99;94599.00;5007400;28;20285;-68
2023/04/22 02:28:16;;;;;;;15.90;12.73;;;;;;;10.85;58.17;94594.88;5007226;28;20238;-67
2023/04/22 02:30:42;;;;;;;14.82;11.88;;;;;;;10.78;58.60;94594.72;5006700;28;20222;-68
2023/04/22 02:33:07;;;;;;;11.93;10.83;;;;;;;10.82;58.65;94598.66;5010995;28;20230;-68
2023/04/22 02:35:32;;;;;;;15.43;11.77;;;;;;;10.84;58.89;94601.97;5003219;28;20306;-68
2023/04/22 02:37:58;;;;;;;12.47;11.17;;;;;;;10.77;58.80;94611.47;5007196;28;20198;-68
2023/04/22 02:40:24;;;;;;;14.70;11.37;;;;;;;10.73;59.13;94612.81;5004355;28;20353;-68
2023/04/22 02:42:49;;;;;;;15.47;11.73;;;;;;;10.77;59.30;94609.69;5008107;28;20261;-69
2023/04/22 02:45:15;;;;;;;17.27;12.50;;;;;;;10.75;59.29;94611.66;5007250;28;20997;-69
2023/04/22 02:47:40;;;;;;;13.93;12.33;;;;;;;10.78;59.01;94611.34;5006373;28;20313;-69
2023/04/22 02:50:07;;;;;;;18.48;12.95;;;;;;;10.81;59.20;94620.69;5009244;28;20199;-68
2023/04/22 02:52:32;;;;;;;14.23;11.33;;;;;;;10.75;58.80;94624.00;5010449;28;20183;-69
2023/04/22 02:54:58;;;;;;;14.87;11.83;;;;;;;10.70;58.69;94626.28;4992746;28;20241;-68
2023/04/22 02:57:24;;;;;;;12.83;11.47;;;;;;;10.66;58.32;94625.75;5009275;28;20433;-67
2023/04/22 02:59:49;;;;;;;13.63;11.68;;;;;;;10.67;58.16;94623.97;5005584;28;20210;-68
2023/04/22 03:02:15;;;;;;;12.13;10.95;;;;;;;10.64;58.25;94621.66;5008845;28;20231;-68
2023/04/22 03:04:41;;;;;;;12.73;11.48;;;;;;;10.62;58.39;94626.28;5009299;28;20240;-69
2023/04/22 03:07:06;;;;;;;14.50;11.57;;;;;;;10.56;58.29;94620.66;5008234;28;20222;-69
2023/04/22 03:09:32;;;;;;;14.57;11.25;;;;;;;10.52;58.36;94621.97;5006487;28;20327;-69
2023/04/22 03:11:57;;;;;;;13.70;11.43;;;;;;;10.54;58.16;94622.63;5008358;28;20314;-68
2023/04/22 03:14:22;;;;;;;13.57;11.23;;;;;;;10.58;58.18;94629.22;5008272;28;20313;-69
2023/04/22 03:16:48;;;;;;;13.27;11.40;;;;;;;10.60;58.18;94635.13;5001816;28;20191;-69
2023/04/22 03:19:13;;;;;;;13.33;12.03;;;;;;;10.57;58.48;94634.63;5008318;28;20237;-68
2023/04/22 03:21:39;;;;;;;12.77;11.50;;;;;;;10.50;58.80;94626.56;5010879;28;20223;-68
2023/04/22 03:24:04;;;;;;;12.63;11.50;;;;;;;10.47;58.95;94626.88;5015149;28;20226;-68
2023/04/22 03:26:30;;;;;;;13.98;11.23;;;;;;;10.48;58.72;94625.91;5008267;28;21010;-68
2023/04/22 03:28:55;;;;;;;14.52;12.15;;;;;;;10.52;58.77;94631.66;5012138;28;20206;-67
2023/04/22 03:31:21;;;;;;;16.83;12.07;;;;;;;10.50;58.69;94631.81;5004708;28;20191;-69
2023/04/22 03:33:46;;;;;;;16.07;11.90;;;;;;;10.38;59.03;94628.66;5006713;28;20318;-69
2023/04/22 03:36:11;;;;;;;14.05;11.52;;;;;;;10.38;59.01;94638.38;5011991;28;20289;-68
2023/04/22 03:38:37;;;;;;;14.37;11.83;;;;;;;10.37;58.86;94645.44;5010501;28;20314;-69
2023/04/22 03:41:02;;;;;;;12.33;11.10;;;;;;;10.42;58.60;94650.19;5014948;28;20198;-68
2023/04/22 03:43:28;;;;;;;15.57;10.80;;;;;;;10.44;58.43;94642.97;5010974;28;20225;-69
2023/04/22 03:45:53;;;;;;;11.30;10.17;;;;;;;10.41;58.13;94638.03;5006768;28;20219;-69
2023/04/22 03:48:19;;;;;;;10.57;9.23;;;;;;;10.38;57.60;94651.50;5015399;28;20222;-69
2023/04/22 03:50:44;;;;;;;12.23;10.60;;;;;;;10.31;58.07;94648.69;5012533;28;20219;-68
2023/04/22 03:53:10;;;;;;;12.20;10.13;;;;;;;10.34;57.81;94650.16;5011730;28;20277;-67
2023/04/22 03:55:35;;;;;;;11.67;10.17;;;;;;;10.42;57.28;94650.19;5013031;28;20230;-69
2023/04/22 03:58:01;;;;;;;10.37;9.30;;;;;;;10.42;57.39;94658.06;5008857;28;20222;-68
2023/04/22 04:00:26;;;;;;;11.93;8.90;;;;;;;10.41;56.96;94651.19;5010745;28;20227;-68
2023/04/22 04:02:52;;;;;;;11.67;8.57;;;;;;;10.34;56.82;94658.03;5012198;28;20265;-67
2023/04/22 04:05:17;;;;;;;9.90;8.80;;;;;;;10.28;56.78;94648.19;5012297;28;20227;-67
2023/04/22 04:07:43;;;;;;;11.37;9.20;;;;;;;10.32;56.74;94649.53;5016774;28;20183;-67
2023/04/22 04:10:09;;;;;;;9.73;8.83;;;;;;;10.38;56.62;94654.13;5014453;28;20313;-69
2023/04/22 04:12:35;;;;;;;10.20;8.43;;;;;;;10.35;56.16;94665.78;5009712;28;20223;-68
2023/04/22 04:15:00;;;;;;;9.27;7.90;;;;;;;10.38;56.29;94664.66;5013156;28;20226;-69
2023/04/22 04:17:27;;;;;;;9.10;8.17;;;;;;;10.38;56.28;94656.75;4995509;28;20678;-67
2023/04/22 04:19:53;;;;;;;10.87;8.73;;;;;;;10.47;56.14;94660.22;5009907;28;20187;-69
2023/04/22 04:22:19;;;;;;;12.07;8.30;;;;;;;10.54;55.93;94659.44;5010704;28;20292;-67
2023/04/22 04:24:46;;;;;;;9.88;8.77;;;;;;;10.52;56.04;94663.22;5014136;28;20227;-67
2023/04/22 04:27:12;;;;;;;11.93;8.37;;;;;;;10.58;55.57;94665.19;5014764;28;20246;-67
2023/04/22 04:29:38;;;;;;;10.97;8.27;;;;;;;10.59;55.56;94672.09;5008149;28;20229;-67
2023/04/22 04:32:04;;;;;;;8.23;7.43;;;;;;;10.64;55.20;94661.09;5010796;28;20183;-69
2023/04/22 04:34:36;;;;;;;10.23;8.13;;;;;;;10.73;54.99;94675.91;5010416;28;20574;-66
2023/04/22 04:37:02;;;;;;;10.67;7.70;;;;;;;10.75;55.16;94679.22;5009997;28;20225;-66
2023/04/22 04:39:27;;;;;;;10.77;7.20;;;;;;;10.79;55.31;94683.16;5009013;28;20222;-66
2023/04/22 04:41:57;;;;;;;8.60;7.53;;;;;;;10.77;55.17;94679.84;5010425;28;20214;-66
2023/04/22 04:44:25;;;;;;;8.27;7.35;;;;;;;10.59;55.65;94691.34;5012680;28;20750;-67
2023/04/22 04:46:50;;;;;;;11.48;8.70;;;;;;;10.61;55.70;94696.41;5011353;28;21035;-67
2023/04/22 04:49:16;;;;;;;9.93;8.57;;;;;;;10.65;55.71;94694.31;5028190;28;20215;-67
2023/04/22 04:51:42;;;;;;;10.17;8.57;;;;;;;10.63;55.88;94699.72;5011783;28;20257;-67
2023/04/22 04:54:07;;;;;;;10.20;9.30;;;;;;;10.80;55.39;94701.41;5010748;28;20237;-67
2023/04/22 04:56:33;;;;;;;12.07;9.40;;;;;;;10.85;55.93;94697.47;5003493;28;20288;-67
2023/04/22 04:58:58;;;;;;;15.27;9.57;;;;;;;10.92;55.79;94699.28;5009525;28;20203;-67
2023/04/22 05:01:24;;;;;;;10.50;9.40;;;;;;;10.77;56.00;94706.16;5007853;28;20521;-67
2023/04/22 05:03:49;;;;;;;10.57;9.57;;;;;;;10.69;56.27;94704.34;5011072;28;20218;-67
2023/04/22 05:06:15;;;;;;;14.70;11.40;;;;;;;10.88;56.05;94703.25;5017270;28;20253;-67
2023/04/22 05:08:40;;;;;;;13.27;11.90;;;;;;;11.03;56.55;94700.78;5010705;28;20629;-67
2023/04/22 05:11:05;;;;;;;13.70;10.98;;;;;;;11.16;56.34;94710.84;5017707;28;20194;-67
2023/04/22 05:13:31;;;;;;;11.73;10.50;;;;;;;11.20;55.92;94706.88;5013511;28;20186;-67
2023/04/22 05:15:57;;;;;;;13.83;9.63;;;;;;;11.23;55.62;94709.22;5019989;28;20234;-67
2023/04/22 05:18:22;;;;;;;14.88;10.15;;;;;;;11.26;55.43;94701.81;5015065;28;20226;-68
2023/04/22 05:20:48;;;;;;;16.63;12.32;;;;;;;11.33;55.44;94707.22;5013534;28;20241;-69
2023/04/22 05:23:13;;;;;;;18.20;13.13;;;;;;;11.34;55.53;94715.97;5010447;28;20265;-64
2023/04/22 05:25:38;;;;;;;15.57;13.00;;;;;;;11.17;56.32;94712.47;5014058;28;20242;-63
2023/04/22 05:28:04;;;;;;;17.47;13.27;;;;;;;11.12;56.80;94705.09;5010231;28;20214;-65
2023/04/22 05:30:29;;;;;;;16.47;14.67;;;;;;;11.30;56.46;94718.09;5011681;28;20226;-66
2023/04/22 05:32:55;;;;;;;16.02;14.38;;;;;;;11.39;55.99;94714.50;5006472;28;20227;-65
2023/04/22 05:35:20;;;;;;;17.48;15.57;;;;;;;11.40;56.18;94700.34;5005428;28;21049;-66
2023/04/22 05:37:46;;;;;;;19.63;15.73;;;;;;;11.47;56.23;94703.16;5019263;28;20198;-64
2023/04/22 05:40:11;;;;;;;23.92;16.80;;;;;;;11.55;56.26;94711.03;5004991;28;20234;-65
2023/04/22 05:42:37;;;;;;;19.50;15.97;;;;;;;11.60;55.71;94707.88;5010739;28;20233;-66
2023/04/22 05:45:02;;;;;;;16.67;15.05;;;;;;;11.72;55.32;94713.66;5006034;28;20225;-66
2023/04/22 05:47:29;;;;;;;18.77;15.20;;;;;;;11.55;55.91;94704.97;5010845;28;20302;-66
2023/04/22 05:49:54;;;;;;;17.70;15.27;;;;;;;11.72;54.81;94706.56;5009114;28;20248;-66
2023/04/22 05:52:20;;;;;;;19.98;15.90;;;;;;;11.67;55.39;94714.16;5026224;28;20179;-64
2023/04/22 05:54:45;;;;;;;18.90;16.90;;;;;;;11.75;54.96;94700.97;5009188;28;20246;-65
2023/04/22 05:57:11;;;;;;;17.10;15.10;;;;;;;11.77;54.95;94709.53;5011554;28;20230;-65
2023/04/22 05:59:36;;;;;;;19.40;15.98;;;;;;;11.84;54.77;94713.16;5011824;28;20309;-65
2023/04/22 06:02:02;;;;;;;18.33;15.90;;;;;;;11.81;54.98;94705.56;5009933;28;20592;-65
2023/04/22 06:04:27;;;;;;;17.65;15.85;;;;;;;11.87;54.74;94699.69;5007941;28;20187;-64
2023/04/22 06:06:53;;;;;;;18.33;14.95;;;;;;;11.97;54.75;94707.38;5008742;28;20238;-64
2023/04/22 06:09:20;;;;;;;20.67;17.50;;;;;;;11.80;55.21;94713.66;5009511;28;20579;-64
2023/04/22 06:11:45;;;;;;;18.30;15.83;;;;;;;11.83;55.22;94708.03;5010740;28;20218;-65
2023/04/22 06:14:12;;;;;;;19.77;16.52;;;;;;;12.02;54.78;94706.88;4994369;28;20201;-66
2023/04/22 06:16:37;;;;;;;16.27;14.75;;;;;;;12.23;53.73;94708.97;4999256;28;20278;-65
2023/04/22 06:19:03;;;;;;;16.63;14.93;;;;;;;11.84;55.10;94710.53;5006944;28;20318;-66
2023/04/22 06:21:28;;;;;;;17.13;15.15;;;;;;;11.89;55.26;94704.75;5006899;28;20230;-66
2023/04/22 06:23:53;;;;;;;16.52;14.93;;;;;;;11.89;55.04;94707.41;5008047;28;20229;-65
2023/04/22 06:26:19;;;;;;;17.20;15.52;;;;;;;11.95;55.05;94700.63;5001281;28;20281;-66
2023/04/22 06:28:44;;;;;;;16.73;14.77;;;;;;;12.02;54.97;94712.16;5004626;28;20322;-67
2023/04/22 06:31:10;;;;;;;18.77;14.70;;;;;;;12.08;55.00;94712.31;5005546;28;20218;-65
2023/04/22 06:33:35;;;;;;;16.27;14.20;;;;;;;12.15;54.74;94712.47;5007686;28;20237;-65
2023/04/22 06:36:01;;;;;;;16.10;13.27;;;;;;;12.29;54.49;94710.94;5005991;28;20226;-67
2023/04/22 06:38:26;;;;;;;10.80;9.70;;;;;;;12.25;53.96;94715.72;5007416;28;20215;-67
2023/04/22 06:40:52;;;;;;;13.15;11.07;;;;;;;12.47;54.15;94718.63;5006208;28;20205;-66
2023/04/22 06:43:17;;;;;;;12.23;10.88;;;;;;;12.53;54.32;94716.09;5004514;28;20292;-68
2023/04/22 06:45:43;;;;;;;12.35;11.13;;;;;;;12.60;54.02;94716.25;5006759;28;20289;-68
2023/04/22 06:48:08;;;;;;;12.05;10.60;;;;;;;12.70;53.82;94718.72;5008569;28;20211;-68
2023/04/22 06:50:34;;;;;;;11.70;10.60;;;;;;;12.77;53.75;94717.81;5008628;28;20305;-70
2023/04/22 06:52:59;;;;;;;12.38;10.88;;;;;;;12.88;53.33;94711.34;4993667;28;20226;-68
2023/04/22 06:55:25;;;;;;;13.98;11.43;;;;;;;12.89;53.25;94718.28;5007957;28;20238;-69
2023/04/22 06:57:50;;;;;;;14.57;12.18;;;;;;;12.86;53.10;94725.72;5010521;28;20206;-68
2023/04/22 07:00:16;;;;;;;13.93;12.60;;;;;;;12.90;52.66;94719.91;5009432;28;20222;-68
2023/04/22 07:02:41;;;;;;;13.20;11.85;;;;;;;12.93;52.60;94711.63;5010694;28;20262;-68
2023/04/22 07:05:07;;;;;;;14.40;11.52;;;;;;;12.98;52.61;94714.56;5010193;28;20225;-68
2023/04/22 07:07:32;;;;;;;13.02;11.73;;;;;;;13.05;52.63;94713.91;5008502;28;20301;-68
2023/04/22 07:09:58;;;;;;;13.57;11.15;;;;;;;13.11;52.77;94718.47;5009169;28;20202;-67
2023/04/22 07:12:24;;;;;;;15.55;11.10;;;;;;;13.20;52.82;94720.91;5013012;28;20212;-67
2023/04/22 07:14:50;;;;;;;11.52;10.52;;;;;;;13.31;52.24;94719.72;5009599;28;20777;-67
2023/04/22 07:17:18;;;;;;;12.20;10.48;;;;;;;13.38;51.80;94709.25;5012409;28;20296;-67
2023/04/22 07:19:43;;;;;;;11.35;10.25;;;;;;;13.13;52.40;94719.13;5008216;28;20305;-67
2023/04/22 07:22:09;;;;;;;11.45;9.50;;;;;;;13.23;52.05;94715.28;5011673;28;20360;-67
2023/04/22 07:24:35;;;;;;;11.68;9.82;;;;;;;13.46;51.52;94714.47;5009531;28;20237;-67
2023/04/22 07:27:01;;;;;;;10.77;9.68;;;;;;;13.60;51.56;94724.25;5003692;28;20218;-68
2023/04/22 07:29:26;;;;;;;9.75;8.70;;;;;;;13.65;51.12;94715.81;5012253;28;20222;-69
2023/04/22 07:31:52;;;;;;;11.25;8.65;;;;;;;13.76;50.32;94718.00;5010112;28;20589;-67
2023/04/22 07:34:18;;;;;;;9.65;8.68;;;;;;;13.74;50.94;94714.75;5013025;28;20725;-68
2023/04/22 07:36:43;;;;;;;9.00;8.10;;;;;;;13.82;50.79;94716.47;5006842;28;20245;-67
2023/04/22 07:39:08;;;;;;;9.48;7.97;;;;;;;13.92;50.89;94724.97;5007309;28;20250;-67
2023/04/22 07:41:35;;;;;;;9.93;7.60;;;;;;;13.93;49.83;94721.34;5014171;28;20222;-69
2023/04/22 07:44:02;;;;;;;9.30;8.15;;;;;;;14.00;49.63;94724.09;5000567;28;20293;-69
2023/04/22 07:46:27;;;;;;;9.38;7.88;;;;;;;14.11;49.50;94721.84;5009112;28;20297;-69
2023/04/22 07:48:53;;;;;;;7.63;6.88;;;;;;;14.17;48.78;94719.47;5010678;28;20325;-69
2023/04/22 07:51:18;;;;;;;8.70;7.90;;;;;;;14.19;48.76;94709.50;5011581;28;20298;-68
2023/04/22 07:53:44;;;;;;;10.77;7.18;;;;;;;14.30;48.31;94714.34;5008970;28;20242;-68
2023/04/22 07:56:09;;;;;;;8.63;7.72;;;;;;;14.26;48.68;94711.25;5010884;28;20230;-68
2023/04/22 07:58:35;;;;;;;9.95;8.05;;;;;;;14.23;48.32;94705.53;5009763;28;20191;-68
2023/04/22 08:01:00;;;;;;;8.68;7.35;;;;;;;14.27;48.55;94714.72;5011190;28;20214;-68
2023/04/22 08:03:26;;;;;;;8.15;7.28;;;;;;;14.28;48.79;94703.16;5009471;28;20229;-68
2023/04/22 08:05:51;;;;;;;7.88;7.20;;;;;;;14.29;49.00;94700.31;5010301;28;20241;-69
2023/04/22 08:08:17;;;;;;;8.55;7.78;;;;;;;14.47;48.57;94715.00;5011322;28;20223;-69
2023/04/22 08:10:42;;;;;;;7.45;6.75;;;;;;;14.41;48.42;94708.63;5007587;28;20195;-67
2023/04/22 08:13:08;;;;;;;8.27;6.78;;;;;;;14.53;48.26;94701.06;5012627;28;20190;-68
2023/04/22 08:15:33;;;;;;;7.45;6.60;;;;;;;14.61;47.53;94703.63;5008111;28;20261;-69
2023/04/22 08:17:59;;;;;;;7.57;5.47;;;;;;;14.60;47.04;94698.53;5013745;28;20243;-69
2023/04/22 08:20:24;;;;;;;6.60;5.88;;;;;;;14.57;46.68;94705.00;5005325;28;20231;-69
2023/04/22 08:22:56;;;;;;;8.63;6.30;;;;;;;14.62;46.35;94702.63;5011058;28;20580;-69
2023/04/22 08:25:21;;;;;;;10.07;5.65;;;;;;;14.73;46.59;94698.69;5010242;28;20277;-69
2023/04/22 08:27:48;;;;;;;8.27;5.75;;;;;;;14.77;46.36;94700.75;5006922;28;20306;-67
2023/04/22 08:30:14;;;;;;;9.60;5.53;;;;;;;14.85;45.47;94696.38;5007051;28;20223;-68
2023/04/22 08:32:39;;;;;;;8.82;5.40;;;;;;;14.90;43.97;94684.22;4999092;28;20286;-68
2023/04/22 08:35:05;;;;;;;6.30;5.68;;;;;;;14.86;44.19;94685.63;5010564;28;20226;-67
2023/04/22 08:37:31;;;;;;;9.25;5.60;;;;;;;14.98;44.07;94691.22;5009893;28;20681;-68
2023/04/22 08:39:56;;;;;;;6.13;4.55;;;;;;;15.08;42.99;94685.66;5008767;28;20791;-69
2023/04/22 08:42:22;;;;;;;7.55;4.60;;;;;;;15.06;42.70;94679.72;5007714;28;20313;-67
2023/04/22 08:44:48;;;;;;;6.88;5.20;;;;;;;14.88;42.96;94673.00;5006915;28;20551;-67
2023/04/22 08:47:14;;;;;;;7.10;5.20;;;;;;;14.88;43.41;94680.13;5008912;28;20226;-69
2023/04/22 08:49:41;;;;;;;6.05;5.20;;;;;;;14.92;42.73;94666.34;5008053;28;20194;-68
2023/04/22 08:52:08;;;;;;;5.38;4.72;;;;;;;14.97;42.68;94669.25;5009252;28;20226;-68
2023/04/22 08:54:36;;;;;;;10.15;4.90;;;;;;;14.95;42.46;94665.94;5007615;28;20273;-68
2023/04/22 08:57:02;;;;;;;6.13;4.70;;;;;;;14.92;42.38;94665.50;5012370;28;20644;-68
2023/04/22 08:59:28;;;;;;;8.23;5.13;;;;;;;14.88;42.74;94662.41;5010077;28;20223;-68
2023/04/22 09:01:54;;;;;;;6.30;4.75;;;;;;;15.03;43.01;94658.91;4994258;28;20226;-68
2023/04/22 09:04:20;;;;;;;6.45;4.60;;;;;;;15.16;42.11;94661.69;5006535;28;20554;-68
2023/04/22 09:06:45;;;;;;;5.70;3.95;;;;;;;15.27;41.57;94652.44;5009600;28;20217;-69
2023/04/22 09:09:11;;;;;;;9.07;4.85;;;;;;;15.69;40.04;94651.59;5009267;28;20249;-68
2023/04/22 09:11:36;;;;;;;8.13;4.80;;;;;;;15.42;40.33;94655.81;5012307;28;20244;-67
2023/04/22 09:14:03;;;;;;;6.05;4.22;;;;;;;15.39;40.02;94648.25;5008435;28;20226;-68
2023/04/22 09:16:30;;;;;;;4.60;4.10;;;;;;;15.41;39.36;94649.69;5008814;28;20182;-68
2023/04/22 09:18:55;;;;;;;5.25;4.55;;;;;;;15.43;40.60;94647.69;5012206;28;20183;-68
2023/04/22 09:21:24;;;;;;;7.57;5.05;;;;;;;15.63;40.16;94650.47;5009216;28;20223;-68
2023/04/22 09:23:51;;;;;;;9.32;5.30;;;;;;;15.74;39.43;94645.69;5002750;28;20222;-68
2023/04/22 09:26:24;;;;;;;7.75;4.70;;;;;;;15.75;39.15;94644.72;5008960;28;20869;-68
2023/04/22 09:28:54;;;;;;;7.05;4.63;;;;;;;15.83;39.10;94649.88;5008279;28;20275;-68
2023/04/22 09:31:21;;;;;;;6.90;4.15;;;;;;;15.72;37.38;94637.97;5005344;28;20349;-68
2023/04/22 09:33:48;;;;;;;6.38;3.92;;;;;;;15.77;37.52;94638.22;5012166;28;20227;-68
2023/04/22 09:36:14;;;;;;;6.68;4.07;;;;;;;15.93;37.04;94630.94;5025199;28;20218;-68
2023/04/22 09:38:39;;;;;;;7.22;4.30;;;;;;;16.15;37.54;94623.75;5019387;28;20218;-68
2023/04/22 09:41:10;;;;;;;7.57;4.75;;;;;;;16.45;37.30;94624.31;5007036;28;20215;-68
2023/04/22 09:43:37;;;;;;;5.45;4.22;;;;;;;16.34;36.99;94623.03;5014039;28;20213;-68
2023/04/22 09:46:02;;;;;;;5.85;4.05;;;;;;;16.52;36.33;94631.28;5010423;28;20191;-67
2023/04/22 09:48:28;;;;;;;4.78;4.05;;;;;;;16.96;34.83;94629.22;5009187;28;20218;-67
2023/04/22 09:50:53;;;;;;;5.38;3.50;;;;;;;16.76;33.89;94627.28;5006393;28;20235;-68
2023/04/22 09:53:20;;;;;;;5.57;3.60;;;;;;;16.97;34.70;94629.03;5010642;28;20222;-67
2023/04/22 09:55:52;;;;;;;5.28;3.88;;;;;;;17.59;33.19;94624.41;5007653;28;20299;-68
2023/04/22 09:58:19;;;;;;;4.35;3.40;;;;;;;17.37;32.70;94617.63;5011624;28;20478;-67
2023/04/22 10:00:49;;;;;;;4.38;3.97;;;;;;;17.60;32.50;94626.03;5008690;28;20226;-67
2023/04/22 10:03:15;;;;;;;6.22;4.00;;;;;;;17.43;35.15;94622.16;5010559;28;20247;-67
2023/04/22 10:05:43;;;;;;;6.78;3.00;;;;;;;17.44;36.26;94622.97;5007983;28;20222;-67
2023/04/22 10:08:09;;;;;;;3.65;2.65;;;;;;;17.38;35.81;94625.41;5011291;28;20213;-68
2023/04/22 10:10:35;;;;;;;3.22;1.90;;;;;;;17.26;35.22;94631.50;5011362;28;20713;-67
2023/04/22 10:13:03;;;;;;;6.97;2.42;;;;;;;17.28;34.62;94624.16;5012480;28;20187;-67
2023/04/22 10:15:41;;;;;;;5.05;1.95;;;;;;;17.01;34.25;94632.09;5010271;28;20214;-67
2023/04/22 10:18:13;;;;;;;3.13;2.00;;;;;;;17.04;34.35;94622.91;5013434;28;20222;-67
2023/04/22 10:20:41;;;;;;;3.42;2.28;;;;;;;17.27;33.81;94626.00;5004957;28;20262;-68
2023/04/22 10:23:13;;;;;;;2.88;2.10;;;;;;;17.51;33.30;94615.78;5019372;28;20770;-68
2023/04/22 10:25:39;;;;;;;2.72;1.85;;;;;;;17.53;33.31;94617.22;5008179;28;20274;-68
2023/04/22 10:28:08;;;;;;;2.05;1.83;;;;;;;17.80;33.13;94617.25;5011688;28;20554;-67
2023/04/22 10:30:36;;;;;;;2.25;1.60;;;;;;;18.02;31.81;94621.31;5010284;28;20218;-67
2023/04/22 10:33:35;;;;;;;2.30;1.70;;;;;;;18.23;31.41;94616.75;5014517;28;20660;-67
2023/04/22 10:36:08;;;;;;;3.33;1.70;;;;;;;18.30;30.77;94617.56;4954424;28;20225;-67
2023/04/22 10:38:38;;;;;;;2.10;1.90;;;;;;;18.42;30.58;94607.09;4938681;28;20228;-67
2023/04/22 10:41:04;;;;;;;2.75;1.90;;;;;;;18.48;31.93;94619.56;4971883;28;20216;-68
2023/04/22 10:43:45;;;;;;;2.53;1.80;;;;;;;18.67;32.11;94613.34;4957139;28;20203;-67
2023/04/22 10:46:29;;;;;;;2.97;2.05;;;;;;;18.84;30.90;94613.69;4956860;28;20199;-68
2023/04/22 10:49:19;;;;;;;1.80;1.42;;;;;;;18.92;30.80;94607.31;4972102;28;20330;-67
2023/04/22 10:51:45;;;;;;;1.52;1.42;;;;;;;19.10;29.69;94604.75;4956077;28;20250;-68
2023/04/22 10:54:26;;;;;;;2.58;1.83;;;;;;;19.21;30.06;94603.22;4972522;28;20235;-68
2023/04/22 10:57:18;;;;;;;2.00;1.85;;;;;;;19.38;28.94;94592.88;4972453;28;20231;-68
2023/04/22 10:59:54;;;;;;;2.45;2.00;;;;;;;19.20;28.11;94596.28;4957778;28;20231;-65
2023/04/22 11:02:21;;;;;;;2.92;1.80;;;;;;;19.04;28.80;94596.81;4953822;28;20716;-66
2023/04/22 11:04:47;;;;;;;3.83;2.63;;;;;;;19.18;28.80;94595.69;4955042;28;20230;-66
2023/04/22 11:07:25;;;;;;;5.35;2.40;;;;;;;19.00;28.75;94600.91;4956161;28;20287;-66
2023/04/22 11:10:08;;;;;;;3.15;2.47;;;;;;;19.15;28.11;94598.78;4954047;28;20226;-65
2023/04/22 11:12:33;;;;;;;4.63;2.17;;;;;;;18.91;28.44;94601.16;4966948;28;20227;-66
2023/04/22 11:15:00;;;;;;;4.65;2.45;;;;;;;18.91;27.54;94597.69;5002147;28;20235;-65
2023/04/22 11:17:26;;;;;;;3.92;1.92;;;;;;;19.00;27.83;94595.56;5003213;28;20219;-66
2023/04/22 11:19:55;;;;;;;2.78;1.77;;;;;;;19.16;28.18;94603.91;5008659;28;20721;-64
2023/04/22 11:22:22;;;;;;;4.57;1.63;;;;;;;19.24;29.45;94591.31;4970152;28;20583;-65